sensor_id;sensor_type;location;lat;lon;timestamp;temperature;humidity
8684;DHT22;4379;59.744;18.206;2023-03-31T00:00:51;-2.50;99.90
8684;DHT22;4379;59.744;18.206;2023-03-31T00:03:19;-2.50;99.90
8684;DHT22;4379;59.744;18.206;2023-03-31T00:05:58;-2.50;99.90
8684;DHT22;4379;59.744;18.206;2023-03-31T00:08:27;-2.60;99.90
8684;DHT22;4379;59.744;18.206;2023-03-31T00:10:59;-2.60;99.90
8684;DHT22;4379;59.744;18.206;2023-03-31T00:13:28;-2.60;99.90
8684;DHT22;4379;59.744;18.206;2023-03-31T00:16:00;-2.60;99.90
8684;DHT22;4379;59.744;18.206;2023-03-31T00:18:28;-2.70;99.90
8684;DHT22;4379;59.744;18.206;2023-03-31T00:21:07;-2.60;99.90
8684;DHT22;4379;59.744;18.206;2023-03-31T00:23:35;-2.50;99.90
8684;DHT22;4379;59.744;18.206;2023-03-31T00:26:03;-2.60;99.90
8684;DHT22;4379;59.744;18.206;2023-03-31T00:28:31;-2.50;99.90
8684;DHT22;4379;59.744;18.206;2023-03-31T00:31:02;-2.50;99.90
8684;DHT22;4379;59.744;18.206;2023-03-31T00:33:30;-2.50;99.90
8684;DHT22;4379;59.744;18.206;2023-03-31T00:35:57;-2.50;99.90
8684;DHT22;4379;59.744;18.206;2023-03-31T00:38:28;-2.40;99.90
8684;DHT22;4379;59.744;18.206;2023-03-31T00:40:56;-2.40;99.90
8684;DHT22;4379;59.744;18.206;2023-03-31T00:43:27;-2.40;99.90
8684;DHT22;4379;59.744;18.206;2023-03-31T00:46:10;-2.40;99.90
8684;DHT22;4379;59.744;18.206;2023-03-31T00:48:50;-2.30;99.90
8684;DHT22;4379;59.744;18.206;2023-03-31T00:51:20;-2.30;99.90
8684;DHT22;4379;59.744;18.206;2023-03-31T00:53:52;-2.30;99.90
8684;DHT22;4379;59.744;18.206;2023-03-31T00:56:28;-2.40;99.90
8684;DHT22;4379;59.744;18.206;2023-03-31T00:59:01;-2.30;99.90
8684;DHT22;4379;59.744;18.206;2023-03-31T01:01:30;-2.40;99.90
8684;DHT22;4379;59.744;18.206;2023-03-31T01:03:57;-2.40;99.90
8684;DHT22;4379;59.744;18.206;2023-03-31T01:06:25;-2.40;99.90
8684;DHT22;4379;59.744;18.206;2023-03-31T01:08:56;-2.40;99.90
8684;DHT22;4379;59.744;18.206;2023-03-31T01:11:25;-2.30;99.90
8684;DHT22;4379;59.744;18.206;2023-03-31T01:13:54;-2.40;99.90
8684;DHT22;4379;59.744;18.206;2023-03-31T01:16:22;-2.50;99.90
8684;DHT22;4379;59.744;18.206;2023-03-31T01:18:50;-2.50;99.90
8684;DHT22;4379;59.744;18.206;2023-03-31T01:38:52;-2.40;99.90
8684;DHT22;4379;59.744;18.206;2023-03-31T01:41:54;-2.40;99.90
8684;DHT22;4379;59.744;18.206;2023-03-31T01:47:44;-2.40;99.90
8684;DHT22;4379;59.744;18.206;2023-03-31T01:50:34;-2.60;99.90
8684;DHT22;4379;59.744;18.206;2023-03-31T01:54:03;-2.60;99.90
8684;DHT22;4379;59.744;18.206;2023-03-31T01:56:27;-2.50;99.90
8684;DHT22;4379;59.744;18.206;2023-03-31T01:59:13;-2.50;99.90
8684;DHT22;4379;59.744;18.206;2023-03-31T02:02:00;-2.60;99.90
8684;DHT22;4379;59.744;18.206;2023-03-31T02:04:56;-2.50;99.90
8684;DHT22;4379;59.744;18.206;2023-03-31T02:07:36;-2.50;99.90
8684;DHT22;4379;59.744;18.206;2023-03-31T02:10:08;-2.50;99.90
8684;DHT22;4379;59.744;18.206;2023-03-31T02:12:38;-2.60;99.90
8684;DHT22;4379;59.744;18.206;2023-03-31T02:15:09;-2.50;99.90
8684;DHT22;4379;59.744;18.206;2023-03-31T02:17:39;-2.50;99.90
8684;DHT22;4379;59.744;18.206;2023-03-31T02:20:11;-2.60;99.90
8684;DHT22;4379;59.744;18.206;2023-03-31T02:22:42;-2.60;99.90
8684;DHT22;4379;59.744;18.206;2023-03-31T02:25:16;-2.50;99.90
8684;DHT22;4379;59.744;18.206;2023-03-31T02:27:51;-2.50;99.90
8684;DHT22;4379;59.744;18.206;2023-03-31T02:30:19;-2.60;99.90
8684;DHT22;4379;59.744;18.206;2023-03-31T02:32:46;-2.60;99.90
8684;DHT22;4379;59.744;18.206;2023-03-31T02:35:18;-2.60;99.90
8684;DHT22;4379;59.744;18.206;2023-03-31T02:37:48;-2.60;99.90
8684;DHT22;4379;59.744;18.206;2023-03-31T02:40:21;-2.60;99.90
8684;DHT22;4379;59.744;18.206;2023-03-31T02:42:48;-2.60;99.90
8684;DHT22;4379;59.744;18.206;2023-03-31T02:48:01;-2.70;99.90
8684;DHT22;4379;59.744;18.206;2023-03-31T02:50:33;-2.80;99.90
8684;DHT22;4379;59.744;18.206;2023-03-31T02:53:19;-2.80;99.90
8684;DHT22;4379;59.744;18.206;2023-03-31T02:59:00;-2.70;99.90
8684;DHT22;4379;59.744;18.206;2023-03-31T03:04:46;-2.70;99.90
8684;DHT22;4379;59.744;18.206;2023-03-31T03:10:23;-2.90;99.90
8684;DHT22;4379;59.744;18.206;2023-03-31T03:15:36;-2.90;99.90
8684;DHT22;4379;59.744;18.206;2023-03-31T03:18:06;-3.00;99.90
8684;DHT22;4379;59.744;18.206;2023-03-31T03:20:33;-3.00;99.90
8684;DHT22;4379;59.744;18.206;2023-03-31T03:23:01;-3.10;99.90
8684;DHT22;4379;59.744;18.206;2023-03-31T03:25:29;-3.20;99.90
8684;DHT22;4379;59.744;18.206;2023-03-31T03:27:59;-3.20;99.90
8684;DHT22;4379;59.744;18.206;2023-03-31T03:30:26;-3.20;99.90
8684;DHT22;4379;59.744;18.206;2023-03-31T03:32:53;-3.30;99.90
8684;DHT22;4379;59.744;18.206;2023-03-31T03:35:22;-3.30;99.90
8684;DHT22;4379;59.744;18.206;2023-03-31T03:37:49;-3.30;99.90
8684;DHT22;4379;59.744;18.206;2023-03-31T03:40:16;-3.40;99.90
8684;DHT22;4379;59.744;18.206;2023-03-31T03:42:44;-3.40;99.90
8684;DHT22;4379;59.744;18.206;2023-03-31T03:45:11;-3.50;99.90
8684;DHT22;4379;59.744;18.206;2023-03-31T03:47:38;-3.50;99.90
8684;DHT22;4379;59.744;18.206;2023-03-31T03:50:06;-3.60;99.90
8684;DHT22;4379;59.744;18.206;2023-03-31T03:52:34;-3.70;99.90
8684;DHT22;4379;59.744;18.206;2023-03-31T03:55:01;-3.80;99.90
8684;DHT22;4379;59.744;18.206;2023-03-31T03:57:28;-3.90;99.90
8684;DHT22;4379;59.744;18.206;2023-03-31T03:59:56;-3.90;99.90
8684;DHT22;4379;59.744;18.206;2023-03-31T04:02:23;-3.80;99.90
8684;DHT22;4379;59.744;18.206;2023-03-31T04:04:53;-3.90;99.90
8684;DHT22;4379;59.744;18.206;2023-03-31T04:07:21;-4.00;99.90
8684;DHT22;4379;59.744;18.206;2023-03-31T04:09:48;-4.00;99.90
8684;DHT22;4379;59.744;18.206;2023-03-31T04:12:15;-3.90;99.90
8684;DHT22;4379;59.744;18.206;2023-03-31T04:14:45;-3.90;99.90
8684;DHT22;4379;59.744;18.206;2023-03-31T04:17:13;-4.00;99.90
8684;DHT22;4379;59.744;18.206;2023-03-31T04:19:41;-4.10;99.90
8684;DHT22;4379;59.744;18.206;2023-03-31T04:22:08;-4.10;99.90
8684;DHT22;4379;59.744;18.206;2023-03-31T04:24:37;-4.10;99.90
8684;DHT22;4379;59.744;18.206;2023-03-31T04:27:04;-4.10;99.90
8684;DHT22;4379;59.744;18.206;2023-03-31T04:29:33;-4.10;99.90
8684;DHT22;4379;59.744;18.206;2023-03-31T04:32:03;-4.00;99.90
8684;DHT22;4379;59.744;18.206;2023-03-31T04:34:30;-4.00;99.90
8684;DHT22;4379;59.744;18.206;2023-03-31T04:37:03;-4.00;99.90
8684;DHT22;4379;59.744;18.206;2023-03-31T04:39:30;-4.00;99.90
8684;DHT22;4379;59.744;18.206;2023-03-31T04:41:58;-4.00;99.90
8684;DHT22;4379;59.744;18.206;2023-03-31T04:44:26;-4.00;99.90
8684;DHT22;4379;59.744;18.206;2023-03-31T04:46:54;-4.00;99.90
8684;DHT22;4379;59.744;18.206;2023-03-31T04:49:21;-3.90;99.90
8684;DHT22;4379;59.744;18.206;2023-03-31T04:51:49;-3.90;99.90
8684;DHT22;4379;59.744;18.206;2023-03-31T04:54:16;-3.70;99.90
8684;DHT22;4379;59.744;18.206;2023-03-31T04:56:43;-3.70;99.90
8684;DHT22;4379;59.744;18.206;2023-03-31T04:59:10;-3.70;99.90
8684;DHT22;4379;59.744;18.206;2023-03-31T05:01:38;-3.70;99.90
8684;DHT22;4379;59.744;18.206;2023-03-31T05:04:05;-3.70;99.90
8684;DHT22;4379;59.744;18.206;2023-03-31T05:06:32;-3.60;99.90
8684;DHT22;4379;59.744;18.206;2023-03-31T05:09:00;-3.50;99.90
8684;DHT22;4379;59.744;18.206;2023-03-31T05:11:27;-3.40;99.90
8684;DHT22;4379;59.744;18.206;2023-03-31T05:13:55;-3.20;99.90
8684;DHT22;4379;59.744;18.206;2023-03-31T05:16:22;-3.20;99.90
8684;DHT22;4379;59.744;18.206;2023-03-31T05:18:49;-3.00;99.90
8684;DHT22;4379;59.744;18.206;2023-03-31T05:21:19;-3.20;99.90
8684;DHT22;4379;59.744;18.206;2023-03-31T05:23:47;-3.10;99.90
8684;DHT22;4379;59.744;18.206;2023-03-31T05:26:17;-3.10;99.90
8684;DHT22;4379;59.744;18.206;2023-03-31T05:28:45;-3.00;99.90
8684;DHT22;4379;59.744;18.206;2023-03-31T05:31:12;-2.80;99.90
8684;DHT22;4379;59.744;18.206;2023-03-31T05:33:40;-2.80;99.90
8684;DHT22;4379;59.744;18.206;2023-03-31T05:36:13;-2.80;99.90
8684;DHT22;4379;59.744;18.206;2023-03-31T05:38:42;-2.70;99.90
8684;DHT22;4379;59.744;18.206;2023-03-31T05:41:09;-2.50;99.90
8684;DHT22;4379;59.744;18.206;2023-03-31T05:43:38;-2.60;99.90
8684;DHT22;4379;59.744;18.206;2023-03-31T05:46:08;-2.40;99.90
8684;DHT22;4379;59.744;18.206;2023-03-31T05:48:36;-2.50;99.90
8684;DHT22;4379;59.744;18.206;2023-03-31T05:51:04;-2.30;99.90
8684;DHT22;4379;59.744;18.206;2023-03-31T05:53:31;-2.10;99.90
8684;DHT22;4379;59.744;18.206;2023-03-31T05:56:01;-2.00;99.90
8684;DHT22;4379;59.744;18.206;2023-03-31T05:58:29;-2.00;99.90
8684;DHT22;4379;59.744;18.206;2023-03-31T06:01:01;-1.60;99.90
8684;DHT22;4379;59.744;18.206;2023-03-31T06:03:33;-1.90;99.90
8684;DHT22;4379;59.744;18.206;2023-03-31T06:06:01;-1.60;99.90
8684;DHT22;4379;59.744;18.206;2023-03-31T06:08:28;-1.50;99.90
8684;DHT22;4379;59.744;18.206;2023-03-31T06:10:56;-1.30;99.90
8684;DHT22;4379;59.744;18.206;2023-03-31T06:13:23;-1.50;99.90
8684;DHT22;4379;59.744;18.206;2023-03-31T06:15:58;-1.30;99.90
8684;DHT22;4379;59.744;18.206;2023-03-31T06:18:27;-0.70;99.90
8684;DHT22;4379;59.744;18.206;2023-03-31T06:20:55;-0.50;99.90
8684;DHT22;4379;59.744;18.206;2023-03-31T06:23:24;0.00;99.90
8684;DHT22;4379;59.744;18.206;2023-03-31T06:25:52;0.30;99.90
8684;DHT22;4379;59.744;18.206;2023-03-31T06:28:20;0.00;99.90
8684;DHT22;4379;59.744;18.206;2023-03-31T06:30:48;0.10;99.90
8684;DHT22;4379;59.744;18.206;2023-03-31T06:33:15;0.20;99.90
8684;DHT22;4379;59.744;18.206;2023-03-31T06:35:42;-0.20;99.90
8684;DHT22;4379;59.744;18.206;2023-03-31T06:38:09;0.00;99.90
8684;DHT22;4379;59.744;18.206;2023-03-31T06:40:37;0.30;99.90
8684;DHT22;4379;59.744;18.206;2023-03-31T06:43:04;0.50;99.90
8684;DHT22;4379;59.744;18.206;2023-03-31T06:45:31;0.40;99.90
8684;DHT22;4379;59.744;18.206;2023-03-31T06:47:59;0.50;99.90
8684;DHT22;4379;59.744;18.206;2023-03-31T06:50:26;1.10;99.90
8684;DHT22;4379;59.744;18.206;2023-03-31T06:52:53;1.40;99.90
8684;DHT22;4379;59.744;18.206;2023-03-31T06:55:21;1.20;99.90
8684;DHT22;4379;59.744;18.206;2023-03-31T06:57:48;0.90;99.90
8684;DHT22;4379;59.744;18.206;2023-03-31T07:00:16;0.20;99.90
8684;DHT22;4379;59.744;18.206;2023-03-31T07:02:45;0.00;99.90
8684;DHT22;4379;59.744;18.206;2023-03-31T07:05:13;0.50;99.90
8684;DHT22;4379;59.744;18.206;2023-03-31T07:07:40;0.70;99.90
8684;DHT22;4379;59.744;18.206;2023-03-31T07:10:10;0.70;99.90
8684;DHT22;4379;59.744;18.206;2023-03-31T07:12:38;1.30;99.90
8684;DHT22;4379;59.744;18.206;2023-03-31T07:15:05;1.60;99.90
8684;DHT22;4379;59.744;18.206;2023-03-31T07:17:33;1.70;99.90
8684;DHT22;4379;59.744;18.206;2023-03-31T07:20:00;1.30;99.90
8684;DHT22;4379;59.744;18.206;2023-03-31T07:22:27;1.30;99.90
8684;DHT22;4379;59.744;18.206;2023-03-31T07:24:55;1.40;99.90
8684;DHT22;4379;59.744;18.206;2023-03-31T07:27:22;1.50;99.90
8684;DHT22;4379;59.744;18.206;2023-03-31T07:29:52;1.70;99.90
8684;DHT22;4379;59.744;18.206;2023-03-31T07:32:19;1.90;99.90
8684;DHT22;4379;59.744;18.206;2023-03-31T07:34:48;1.50;99.90
8684;DHT22;4379;59.744;18.206;2023-03-31T07:37:15;1.60;99.90
8684;DHT22;4379;59.744;18.206;2023-03-31T07:39:42;1.70;99.90
8684;DHT22;4379;59.744;18.206;2023-03-31T07:42:09;2.10;99.90
8684;DHT22;4379;59.744;18.206;2023-03-31T07:44:39;2.30;99.90
8684;DHT22;4379;59.744;18.206;2023-03-31T07:47:06;4.50;99.90
8684;DHT22;4379;59.744;18.206;2023-03-31T07:49:34;6.60;99.90
8684;DHT22;4379;59.744;18.206;2023-03-31T07:52:02;8.00;99.90
8684;DHT22;4379;59.744;18.206;2023-03-31T07:54:29;9.50;99.90
8684;DHT22;4379;59.744;18.206;2023-03-31T07:56:56;10.30;99.90
8684;DHT22;4379;59.744;18.206;2023-03-31T07:59:27;12.10;99.90
8684;DHT22;4379;59.744;18.206;2023-03-31T08:01:56;9.90;99.90
8684;DHT22;4379;59.744;18.206;2023-03-31T08:04:23;10.00;99.90
8684;DHT22;4379;59.744;18.206;2023-03-31T08:06:51;9.00;99.90
8684;DHT22;4379;59.744;18.206;2023-03-31T08:09:18;8.40;99.90
8684;DHT22;4379;59.744;18.206;2023-03-31T08:11:48;7.40;99.90
8684;DHT22;4379;59.744;18.206;2023-03-31T08:14:15;7.00;99.90
8684;DHT22;4379;59.744;18.206;2023-03-31T08:16:53;6.80;99.90
8684;DHT22;4379;59.744;18.206;2023-03-31T08:19:21;6.10;99.90
8684;DHT22;4379;59.744;18.206;2023-03-31T08:21:48;4.70;99.90
8684;DHT22;4379;59.744;18.206;2023-03-31T08:24:17;3.80;99.90
8684;DHT22;4379;59.744;18.206;2023-03-31T08:26:45;3.20;99.90
8684;DHT22;4379;59.744;18.206;2023-03-31T08:29:12;3.00;99.90
8684;DHT22;4379;59.744;18.206;2023-03-31T08:31:40;3.10;99.90
8684;DHT22;4379;59.744;18.206;2023-03-31T08:34:07;2.70;99.90
8684;DHT22;4379;59.744;18.206;2023-03-31T08:36:34;2.30;99.90
8684;DHT22;4379;59.744;18.206;2023-03-31T08:39:02;2.50;99.90
8684;DHT22;4379;59.744;18.206;2023-03-31T08:47:05;7.20;99.90
8684;DHT22;4379;59.744;18.206;2023-03-31T08:49:52;8.20;99.90
8684;DHT22;4379;59.744;18.206;2023-03-31T08:52:28;10.30;99.90
8684;DHT22;4379;59.744;18.206;2023-03-31T08:55:04;12.10;99.90
8684;DHT22;4379;59.744;18.206;2023-03-31T08:58:01;13.30;99.90
8684;DHT22;4379;59.744;18.206;2023-03-31T09:00:39;13.80;99.90
8684;DHT22;4379;59.744;18.206;2023-03-31T09:03:30;15.40;99.90
8684;DHT22;4379;59.744;18.206;2023-03-31T09:06:09;16.70;99.90
8684;DHT22;4379;59.744;18.206;2023-03-31T09:08:43;13.80;99.90
8684;DHT22;4379;59.744;18.206;2023-03-31T09:11:31;13.10;99.90
8684;DHT22;4379;59.744;18.206;2023-03-31T09:14:29;12.60;99.90
8684;DHT22;4379;59.744;18.206;2023-03-31T09:17:20;12.00;99.90
8684;DHT22;4379;59.744;18.206;2023-03-31T09:20:04;11.30;99.90
8684;DHT22;4379;59.744;18.206;2023-03-31T09:22:40;10.00;99.90
8684;DHT22;4379;59.744;18.206;2023-03-31T09:25:32;9.00;99.90
8684;DHT22;4379;59.744;18.206;2023-03-31T09:28:02;7.40;99.90
8684;DHT22;4379;59.744;18.206;2023-03-31T09:30:34;7.10;99.90
8684;DHT22;4379;59.744;18.206;2023-03-31T09:33:26;6.20;99.90
8684;DHT22;4379;59.744;18.206;2023-03-31T09:35:58;5.40;99.90
8684;DHT22;4379;59.744;18.206;2023-03-31T09:38:27;5.30;99.90
8684;DHT22;4379;59.744;18.206;2023-03-31T09:41:00;5.00;99.90
8684;DHT22;4379;59.744;18.206;2023-03-31T09:43:30;5.50;99.90
8684;DHT22;4379;59.744;18.206;2023-03-31T09:46:01;6.20;99.90
8684;DHT22;4379;59.744;18.206;2023-03-31T09:48:37;7.20;99.90
8684;DHT22;4379;59.744;18.206;2023-03-31T09:51:06;6.00;99.90
8684;DHT22;4379;59.744;18.206;2023-03-31T09:53:50;6.40;99.90
8684;DHT22;4379;59.744;18.206;2023-03-31T09:56:34;6.50;99.90
8684;DHT22;4379;59.744;18.206;2023-03-31T09:59:36;6.60;99.90
8684;DHT22;4379;59.744;18.206;2023-03-31T10:02:32;7.00;99.90
8684;DHT22;4379;59.744;18.206;2023-03-31T10:05:03;6.10;99.90
8684;DHT22;4379;59.744;18.206;2023-03-31T10:07:32;6.10;99.90
8684;DHT22;4379;59.744;18.206;2023-03-31T10:10:00;6.30;99.90
8684;DHT22;4379;59.744;18.206;2023-03-31T10:12:29;6.20;99.90
8684;DHT22;4379;59.744;18.206;2023-03-31T10:15:21;6.00;99.90
8684;DHT22;4379;59.744;18.206;2023-03-31T10:17:49;5.70;99.90
8684;DHT22;4379;59.744;18.206;2023-03-31T10:20:35;5.00;99.90
8684;DHT22;4379;59.744;18.206;2023-03-31T10:23:26;5.80;99.90
8684;DHT22;4379;59.744;18.206;2023-03-31T10:25:54;6.30;99.90
8684;DHT22;4379;59.744;18.206;2023-03-31T10:28:22;7.30;99.90
8684;DHT22;4379;59.744;18.206;2023-03-31T10:30:59;6.70;99.90
8684;DHT22;4379;59.744;18.206;2023-03-31T10:33:31;7.10;99.90
8684;DHT22;4379;59.744;18.206;2023-03-31T10:36:11;6.90;99.90
8684;DHT22;4379;59.744;18.206;2023-03-31T10:38:43;6.70;99.90
8684;DHT22;4379;59.744;18.206;2023-03-31T10:41:24;5.10;99.90
8684;DHT22;4379;59.744;18.206;2023-03-31T10:43:54;5.20;99.90
8684;DHT22;4379;59.744;18.206;2023-03-31T10:46:41;5.20;99.90
8684;DHT22;4379;59.744;18.206;2023-03-31T10:49:28;5.60;99.90
8684;DHT22;4379;59.744;18.206;2023-03-31T10:51:57;4.30;99.90
8684;DHT22;4379;59.744;18.206;2023-03-31T10:54:25;5.00;99.90
8684;DHT22;4379;59.744;18.206;2023-03-31T10:56:58;4.20;99.90
8684;DHT22;4379;59.744;18.206;2023-03-31T11:02:18;4.20;99.90
8684;DHT22;4379;59.744;18.206;2023-03-31T11:11:25;4.30;99.90
8684;DHT22;4379;59.744;18.206;2023-03-31T11:16:54;4.80;99.90
8684;DHT22;4379;59.744;18.206;2023-03-31T11:22:11;4.30;99.90
8684;DHT22;4379;59.744;18.206;2023-03-31T11:24:57;4.50;99.90
8684;DHT22;4379;59.744;18.206;2023-03-31T11:27:52;5.00;99.90
8684;DHT22;4379;59.744;18.206;2023-03-31T11:30:41;4.60;99.90
8684;DHT22;4379;59.744;18.206;2023-03-31T11:36:31;4.20;99.90
8684;DHT22;4379;59.744;18.206;2023-03-31T11:41:40;3.60;99.90
8684;DHT22;4379;59.744;18.206;2023-03-31T11:44:14;3.90;99.90
8684;DHT22;4379;59.744;18.206;2023-03-31T11:46:51;3.50;99.90
8684;DHT22;4379;59.744;18.206;2023-03-31T11:49:24;3.30;99.90
8684;DHT22;4379;59.744;18.206;2023-03-31T11:51:58;2.90;99.90
8684;DHT22;4379;59.744;18.206;2023-03-31T11:54:49;3.30;99.90
8684;DHT22;4379;59.744;18.206;2023-03-31T11:59:57;2.90;99.90
8684;DHT22;4379;59.744;18.206;2023-03-31T12:02:45;3.20;99.90
8684;DHT22;4379;59.744;18.206;2023-03-31T12:05:15;2.70;99.90
8684;DHT22;4379;59.744;18.206;2023-03-31T12:07:58;3.10;99.90
8684;DHT22;4379;59.744;18.206;2023-03-31T12:10:35;3.50;99.90
8684;DHT22;4379;59.744;18.206;2023-03-31T12:21:28;3.40;99.90
8684;DHT22;4379;59.744;18.206;2023-03-31T12:23:57;3.40;99.90
8684;DHT22;4379;59.744;18.206;2023-03-31T12:29:56;3.30;99.90
8684;DHT22;4379;59.744;18.206;2023-03-31T12:32:31;3.30;99.90
8684;DHT22;4379;59.744;18.206;2023-03-31T12:35:09;3.30;99.90
8684;DHT22;4379;59.744;18.206;2023-03-31T12:40:39;3.20;99.90
8684;DHT22;4379;59.744;18.206;2023-03-31T12:43:17;3.30;99.90
8684;DHT22;4379;59.744;18.206;2023-03-31T12:59:39;3.20;99.90
8684;DHT22;4379;59.744;18.206;2023-03-31T13:04:43;3.30;99.90
8684;DHT22;4379;59.744;18.206;2023-03-31T13:09:56;3.20;99.90
8684;DHT22;4379;59.744;18.206;2023-03-31T13:12:25;3.10;99.90
8684;DHT22;4379;59.744;18.206;2023-03-31T13:14:55;3.20;99.90
8684;DHT22;4379;59.744;18.206;2023-03-31T13:19:55;3.00;99.90
8684;DHT22;4379;59.744;18.206;2023-03-31T13:22:36;2.80;99.90
8684;DHT22;4379;59.744;18.206;2023-03-31T13:27:57;2.90;99.90
8684;DHT22;4379;59.744;18.206;2023-03-31T13:35:51;3.00;99.90
8684;DHT22;4379;59.744;18.206;2023-03-31T13:41:29;2.70;99.90
8684;DHT22;4379;59.744;18.206;2023-03-31T13:44:32;2.60;99.90
8684;DHT22;4379;59.744;18.206;2023-03-31T14:06:55;2.20;99.90
8684;DHT22;4379;59.744;18.206;2023-03-31T14:09:41;2.10;99.90
8684;DHT22;4379;59.744;18.206;2023-03-31T14:12:32;2.00;99.90
8684;DHT22;4379;59.744;18.206;2023-03-31T14:15:04;1.90;99.90
8684;DHT22;4379;59.744;18.206;2023-03-31T14:17:39;2.20;99.90
8684;DHT22;4379;59.744;18.206;2023-03-31T14:20:32;2.10;99.90
8684;DHT22;4379;59.744;18.206;2023-03-31T14:26:09;2.00;99.90
8684;DHT22;4379;59.744;18.206;2023-03-31T14:31:31;2.30;99.90
8684;DHT22;4379;59.744;18.206;2023-03-31T14:37:09;2.30;99.90
8684;DHT22;4379;59.744;18.206;2023-03-31T14:39:51;2.10;99.90
8684;DHT22;4379;59.744;18.206;2023-03-31T14:42:23;2.10;99.90
8684;DHT22;4379;59.744;18.206;2023-03-31T14:44:57;2.10;99.90
8684;DHT22;4379;59.744;18.206;2023-03-31T14:47:28;2.10;99.90
8684;DHT22;4379;59.744;18.206;2023-03-31T14:50:01;1.90;99.90
8684;DHT22;4379;59.744;18.206;2023-03-31T14:52:31;1.60;99.90
8684;DHT22;4379;59.744;18.206;2023-03-31T14:54:59;1.80;99.90
8684;DHT22;4379;59.744;18.206;2023-03-31T14:57:31;1.90;99.90
8684;DHT22;4379;59.744;18.206;2023-03-31T15:00:05;1.80;99.90
8684;DHT22;4379;59.744;18.206;2023-03-31T15:02:36;1.60;99.90
8684;DHT22;4379;59.744;18.206;2023-03-31T15:05:09;1.60;99.90
8684;DHT22;4379;59.744;18.206;2023-03-31T15:07:40;1.50;99.90
8684;DHT22;4379;59.744;18.206;2023-03-31T15:10:17;1.70;99.90
8684;DHT22;4379;59.744;18.206;2023-03-31T15:12:47;1.70;99.90
8684;DHT22;4379;59.744;18.206;2023-03-31T15:15:14;1.70;99.90
8684;DHT22;4379;59.744;18.206;2023-03-31T15:17:46;1.50;99.90
8684;DHT22;4379;59.744;18.206;2023-03-31T15:22:56;1.40;99.90
8684;DHT22;4379;59.744;18.206;2023-03-31T15:25:32;1.50;99.90
8684;DHT22;4379;59.744;18.206;2023-03-31T15:28:06;1.40;99.90
8684;DHT22;4379;59.744;18.206;2023-03-31T15:30:39;1.40;99.90
8684;DHT22;4379;59.744;18.206;2023-03-31T15:33:07;1.40;99.90
8684;DHT22;4379;59.744;18.206;2023-03-31T15:35:47;1.50;99.90
8684;DHT22;4379;59.744;18.206;2023-03-31T15:38:15;1.60;99.90
8684;DHT22;4379;59.744;18.206;2023-03-31T15:40:50;1.50;99.90
8684;DHT22;4379;59.744;18.206;2023-03-31T15:44:26;1.40;99.90
8684;DHT22;4379;59.744;18.206;2023-03-31T15:46:25;1.20;99.90
8684;DHT22;4379;59.744;18.206;2023-03-31T15:49:23;1.10;99.90
8684;DHT22;4379;59.744;18.206;2023-03-31T15:51:54;1.20;99.90
8684;DHT22;4379;59.744;18.206;2023-03-31T15:54:33;1.20;99.90
8684;DHT22;4379;59.744;18.206;2023-03-31T15:57:04;1.20;99.90
8684;DHT22;4379;59.744;18.206;2023-03-31T15:59:48;1.10;99.90
8684;DHT22;4379;59.744;18.206;2023-03-31T16:02:24;0.90;99.90
8684;DHT22;4379;59.744;18.206;2023-03-31T16:04:57;0.60;99.90
8684;DHT22;4379;59.744;18.206;2023-03-31T16:07:28;0.40;99.90
8684;DHT22;4379;59.744;18.206;2023-03-31T16:09:59;0.50;99.90
8684;DHT22;4379;59.744;18.206;2023-03-31T16:13:01;0.50;99.90
8684;DHT22;4379;59.744;18.206;2023-03-31T16:15:38;0.50;99.90
8684;DHT22;4379;59.744;18.206;2023-03-31T16:18:23;0.40;99.90
8684;DHT22;4379;59.744;18.206;2023-03-31T16:20:57;0.50;99.90
8684;DHT22;4379;59.744;18.206;2023-03-31T16:23:31;0.40;99.90
8684;DHT22;4379;59.744;18.206;2023-03-31T16:26:00;0.30;99.90
8684;DHT22;4379;59.744;18.206;2023-03-31T16:28:31;0.20;99.90
8684;DHT22;4379;59.744;18.206;2023-03-31T16:31:00;0.20;99.90
8684;DHT22;4379;59.744;18.206;2023-03-31T16:33:30;0.10;99.90
8684;DHT22;4379;59.744;18.206;2023-03-31T16:35:57;0.00;99.90
8684;DHT22;4379;59.744;18.206;2023-03-31T16:38:28;-0.20;99.90
8684;DHT22;4379;59.744;18.206;2023-03-31T16:40:56;-0.30;99.90
8684;DHT22;4379;59.744;18.206;2023-03-31T16:43:27;-0.20;99.90
8684;DHT22;4379;59.744;18.206;2023-03-31T16:45:57;-0.40;99.90
8684;DHT22;4379;59.744;18.206;2023-03-31T16:48:27;-0.40;99.90
8684;DHT22;4379;59.744;18.206;2023-03-31T16:50:56;-0.50;99.90
8684;DHT22;4379;59.744;18.206;2023-03-31T16:53:26;-0.60;99.90
8684;DHT22;4379;59.744;18.206;2023-03-31T16:55:55;-0.70;99.90
8684;DHT22;4379;59.744;18.206;2023-03-31T16:58:23;-1.00;99.90
8684;DHT22;4379;59.744;18.206;2023-03-31T17:00:51;-1.10;99.90
8684;DHT22;4379;59.744;18.206;2023-03-31T17:03:20;-1.20;99.90
8684;DHT22;4379;59.744;18.206;2023-03-31T17:05:50;-1.30;99.90
8684;DHT22;4379;59.744;18.206;2023-03-31T17:08:20;-1.50;99.90
8684;DHT22;4379;59.744;18.206;2023-03-31T17:11:06;-1.50;99.90
8684;DHT22;4379;59.744;18.206;2023-03-31T17:13:36;-1.60;99.90
8684;DHT22;4379;59.744;18.206;2023-03-31T17:16:04;-1.70;99.90
8684;DHT22;4379;59.744;18.206;2023-03-31T17:18:50;-1.90;99.90
8684;DHT22;4379;59.744;18.206;2023-03-31T17:21:18;-2.00;99.90
8684;DHT22;4379;59.744;18.206;2023-03-31T17:23:47;-2.00;99.90
8684;DHT22;4379;59.744;18.206;2023-03-31T17:26:16;-2.10;99.90
8684;DHT22;4379;59.744;18.206;2023-03-31T17:28:44;-2.20;99.90
8684;DHT22;4379;59.744;18.206;2023-03-31T17:31:17;-2.20;99.90
8684;DHT22;4379;59.744;18.206;2023-03-31T17:33:45;-2.40;99.90
8684;DHT22;4379;59.744;18.206;2023-03-31T17:36:13;-2.50;99.90
8684;DHT22;4379;59.744;18.206;2023-03-31T17:38:42;-2.60;99.90
8684;DHT22;4379;59.744;18.206;2023-03-31T17:41:11;-2.70;99.90
8684;DHT22;4379;59.744;18.206;2023-03-31T17:43:39;-2.90;99.90
8684;DHT22;4379;59.744;18.206;2023-03-31T17:46:08;-3.00;99.90
8684;DHT22;4379;59.744;18.206;2023-03-31T17:48:40;-3.10;99.90
8684;DHT22;4379;59.744;18.206;2023-03-31T17:51:10;-3.10;99.90
8684;DHT22;4379;59.744;18.206;2023-03-31T17:53:41;-3.30;99.90
8684;DHT22;4379;59.744;18.206;2023-03-31T17:56:09;-3.40;99.90
8684;DHT22;4379;59.744;18.206;2023-03-31T17:58:37;-3.50;99.90
8684;DHT22;4379;59.744;18.206;2023-03-31T18:01:05;-3.50;99.90
8684;DHT22;4379;59.744;18.206;2023-03-31T18:03:34;-3.60;99.90
8684;DHT22;4379;59.744;18.206;2023-03-31T18:06:05;-3.70;99.90
8684;DHT22;4379;59.744;18.206;2023-03-31T18:08:34;-3.80;99.90
8684;DHT22;4379;59.744;18.206;2023-03-31T18:11:03;-3.80;99.90
8684;DHT22;4379;59.744;18.206;2023-03-31T18:13:34;-3.90;99.90
8684;DHT22;4379;59.744;18.206;2023-03-31T18:16:03;-4.00;99.90
8684;DHT22;4379;59.744;18.206;2023-03-31T18:18:31;-4.00;99.90
8684;DHT22;4379;59.744;18.206;2023-03-31T18:21:04;-4.00;99.90
8684;DHT22;4379;59.744;18.206;2023-03-31T18:23:35;-4.10;99.90
8684;DHT22;4379;59.744;18.206;2023-03-31T18:26:05;-4.20;99.90
8684;DHT22;4379;59.744;18.206;2023-03-31T18:28:33;-4.20;99.90
8684;DHT22;4379;59.744;18.206;2023-03-31T18:31:03;-4.30;99.90
8684;DHT22;4379;59.744;18.206;2023-03-31T18:33:34;-4.40;99.90
8684;DHT22;4379;59.744;18.206;2023-03-31T18:36:02;-4.40;99.90
8684;DHT22;4379;59.744;18.206;2023-03-31T18:38:31;-4.50;99.90
8684;DHT22;4379;59.744;18.206;2023-03-31T18:41:01;-4.60;99.90
8684;DHT22;4379;59.744;18.206;2023-03-31T18:43:31;-4.60;99.90
8684;DHT22;4379;59.744;18.206;2023-03-31T18:45:59;-4.70;99.90
8684;DHT22;4379;59.744;18.206;2023-03-31T18:48:34;-4.80;99.90